• Join FlightAware (Why Join?)
  • Login
  • US Flag 
08:43AM EDT


 

Airport Tracker/Info


-or-


 

Live Flight TrackerFlight Track Log ✈ CSN3950 ✈ 26-May-2013 ✈ ZUCK / CKG - ZGGG / CAN

Flight Track Log - Related Links

Times and Time Zones

All times are in EDT time to prevent confusion due to time zone crossing. See the CSN3950 flight status page for this flight to view local times or setup timezone preferences in your user account.

Time Position Orientation Groundspeed Altitude Reporting Facility
EDT Latitude Longitude Course Direction KTS MPH feet Rate Location/Type
03:55AM 24.1910 110.9210 124° Southeast 505 581 26,600  Level FlightAware
03:56AM 24.1250 111.0140 128° Southeast 492 566 26,600  Level FlightAware
03:57AM 24.0670 111.0930 129° Southeast 488 562 26,600  Level FlightAware
03:58AM 23.9610 111.1840 142° Southeast 491 565 26,600  Level FlightAware
03:59AM 23.8690 111.2550 145° Southeast 479 551 26,600  Level FlightAware
03:59AM 23.8420 111.2850 135° Southeast 485 558 26,600  Level FlightAware
04:00AM 23.7890 111.3640 126° Southeast 498 573 26,600  Level FlightAware
04:00AM 23.7340 111.4500 125° Southeast 496 571 26,600  Level FlightAware
04:01AM 23.6740 111.5450 125° Southeast 496 571 26,600  Level FlightAware
04:02AM 23.6010 111.6600 125° Southeast 494 568 26,600  Level FlightAware
04:03AM 23.5470 111.7450 125° Southeast 495 570 26,600 -780 Level FlightAware
04:03AM 23.4880 111.8360 125° Southeast 494 568 25,500 -1,920 Descending FlightAware
04:04AM 23.4360 111.9180 125° Southeast 485 558 23,900 -1,740 Descending FlightAware
04:05AM 23.3760 112.0150 124° Southeast 469 540 22,800 -2,220 Descending FlightAware
04:06AM 23.3150 112.1080 126° Southeast 438 504 20,300 -2,880 Descending FlightAware
04:06AM 23.2710 112.1760 125° Southeast 426 490 18,800 -2,400 Descending FlightAware
04:07AM 23.2200 112.2550 125° Southeast 414 476 17,000 -2,580 Descending FlightAware
04:08AM 23.1760 112.3230 125° Southeast 413 475 15,200 -2,700 Descending FlightAware
04:08AM 23.1320 112.3920 125° Southeast 411 473 13,400 -1,860 Descending FlightAware
04:09AM 23.0830 112.4710 124° Southeast 413 475 12,600 -960 Descending FlightAware
04:09AM 23.0740 112.4950 112° Southeast 415 478 12,500 -600 Descending FlightAware
04:10AM 23.0700 112.5820 93° East 419 482 12,100 -540 Descending FlightAware
04:11AM 23.0700 112.6860 90° East 414 476 11,700 -480 Descending FlightAware
04:12AM 23.0700 112.7770 90° East 410 472 11,400 -540 Descending FlightAware
04:12AM 23.0690 112.8590 91° East 402 463 11,000 -540 Descending FlightAware
04:13AM 23.0680 112.9360 91° East 359 413 10,700 -540 Descending FlightAware
04:14AM 23.0680 113.0110 90° East 327 376 10,300 -480 Descending FlightAware
04:14AM 23.0670 113.0800 91° East 302 348 10,000 -540 Descending FlightAware
04:15AM 23.0840 113.1400 73° East 292 336 9,600 -540 Descending FlightAware
04:15AM 23.0980 113.1480 28° Northeast 282 325 9,500 -600 Descending FlightAware
04:16AM 23.1110 113.1500 North 270 311 9,400 -420 Descending FlightAware
04:16AM 23.1510 113.1430 351° North 254 292 9,200 -300 Descending FlightAware
04:16AM 23.1640 113.1420 356° North 255 293 9,200 -180 Level FlightAware
04:17AM 23.1990 113.1440 North 251 289 9,100  Descending FlightAware
04:17AM 23.2320 113.1500 North 232 267 9,200 60 Climbing FlightAware
04:18AM 23.2600 113.1550 North 232 267 9,200 -240 Level FlightAware
04:18AM 23.2880 113.1610 11° North 233 268 9,000 -480 Descending FlightAware
04:19AM 23.3190 113.1680 12° North 229 264 8,800 -480 Descending FlightAware
04:19AM 23.3490 113.1740 10° North 231 266 8,600 -480 Descending FlightAware
04:19AM 23.3620 113.1760 North 231 266 8,500 -600 Descending FlightAware
04:20AM 23.3920 113.1820 10° North 231 266 8,200 -360 Descending FlightAware
04:20AM 23.4240 113.1850 North 221 254 8,200  Level FlightAware
04:21AM 23.4520 113.1810 353° North 215 247 8,200 -300 Level FlightAware
04:21AM 23.4940 113.1920 14° North 240 276 7,900 -540 Descending FlightAware
04:22AM 23.5230 113.2010 16° North 236 272 7,600 -780 Descending FlightAware
04:22AM 23.5520 113.2080 12° North 234 269 7,200 -960 Descending FlightAware
04:23AM 23.5820 113.2210 22° Northeast 234 269 6,700 -1,020 Descending FlightAware
04:23AM 23.5960 113.2270 21° North 233 268 6,500 -1,080 Descending FlightAware
04:24AM 23.6220 113.2390 23° Northeast 232 267 6,000 -960 Descending FlightAware
04:24AM 23.6390 113.2460 21° North 233 268 5,800 -960 Descending FlightAware
04:24AM 23.6680 113.2580 21° North 232 267 5,300 -660 Descending FlightAware
04:25AM 23.7020 113.2720 21° North 226 260 5,000 -420 Descending FlightAware
04:26AM 23.7420 113.2960 29° Northeast 227 261 4,800 -480 Descending FlightAware
04:26AM 23.7460 113.3110 74° East 218 251 4,700 -420 Descending FlightAware
04:26AM 23.7310 113.3360 123° Southeast 186 214 4,500 -480 Descending FlightAware
04:27AM 23.7110 113.3420 165° South 180 207 4,300 -480 Descending FlightAware
04:27AM 23.6880 113.3470 169° South 179 206 4,100 -540 Descending FlightAware
04:28AM 23.6660 113.3530 166° South 174 200 3,800 -540 Descending FlightAware
04:28AM 23.6540 113.3550 171° South 162 186 3,700 -600 Descending FlightAware
04:28AM 23.6340 113.3530 185° South 148 170 3,400 -540 Descending FlightAware
04:29AM 23.6190 113.3490 194° South 147 169 3,300 -120 Descending FlightAware
04:29AM 23.5960 113.3430 193° South 152 175 3,300  Level FlightAware
04:30AM 23.5800 113.3380 196° South 151 174 3,300 -420 Level FlightAware
04:31AM 23.5390 113.3270 194° South 151 174 2,800 -600 Descending FlightAware
04:31AM 23.5260 113.3240 192° South 151 174 2,500 -900 Descending FlightAware
04:34AM 23.3924 113.2988 190° South  Level Estimated
04:35AM 23.3924 113.2988 223° Southwest  Level Estimated
04:36AM 23.3924 113.2988 223° Southwest  Level Estimated
04:37AM 23.3924 113.2988 223° Southwest  Level Estimated
04:38AM 23.3924 113.2988 223° Southwest  Level Estimated
04:39AM 23.3924 113.2988 223° Southwest  Level Estimated
04:40AM 23.3924 113.2988 223° Southwest  Level Estimated
04:41AM 23.3924 113.2988 223° Southwest  Level Estimated
04:42AM 23.3924 113.2988 223° Southwest  Level Estimated
04:43AM 23.3924 113.2988 223° Southwest  Level Estimated
04:44AM 23.3924 113.2988 223° Southwest  Level Estimated
04:45AM 23.3924 113.2988 223° Southwest  Level Estimated
04:46AM 23.3924 113.2988 223° Southwest  Level Estimated